sensor_id;sensor_type;location;lat;lon;timestamp;P1;durP1;ratioP1;P2;durP2;ratioP2
6661;SDS011;3367;48.714;8.994;2023-04-10T00:00:30;12.87;;;9.13;;
6661;SDS011;3367;48.714;8.994;2023-04-10T00:02:57;13.83;;;8.93;;
6661;SDS011;3367;48.714;8.994;2023-04-10T00:05:24;12.57;;;8.70;;
6661;SDS011;3367;48.714;8.994;2023-04-10T00:07:51;15.40;;;8.60;;
6661;SDS011;3367;48.714;8.994;2023-04-10T00:10:18;11.73;;;8.53;;
6661;SDS011;3367;48.714;8.994;2023-04-10T00:12:45;14.13;;;10.00;;
6661;SDS011;3367;48.714;8.994;2023-04-10T00:15:13;14.70;;;9.60;;
6661;SDS011;3367;48.714;8.994;2023-04-10T00:17:40;13.53;;;10.10;;
6661;SDS011;3367;48.714;8.994;2023-04-10T00:20:07;13.63;;;9.07;;
6661;SDS011;3367;48.714;8.994;2023-04-10T00:22:35;17.07;;;10.40;;
6661;SDS011;3367;48.714;8.994;2023-04-10T00:25:01;14.27;;;9.97;;
6661;SDS011;3367;48.714;8.994;2023-04-10T00:27:30;19.27;;;10.90;;
6661;SDS011;3367;48.714;8.994;2023-04-10T00:29:57;18.10;;;11.17;;
6661;SDS011;3367;48.714;8.994;2023-04-10T00:32:25;16.97;;;10.20;;
6661;SDS011;3367;48.714;8.994;2023-04-10T00:34:51;14.87;;;10.20;;
6661;SDS011;3367;48.714;8.994;2023-04-10T00:37:18;13.23;;;9.50;;
6661;SDS011;3367;48.714;8.994;2023-04-10T00:39:45;14.73;;;9.67;;
6661;SDS011;3367;48.714;8.994;2023-04-10T00:42:12;17.77;;;9.73;;
6661;SDS011;3367;48.714;8.994;2023-04-10T00:44:38;15.63;;;9.07;;
6661;SDS011;3367;48.714;8.994;2023-04-10T00:47:05;16.17;;;10.00;;
6661;SDS011;3367;48.714;8.994;2023-04-10T00:49:34;14.53;;;9.27;;
6661;SDS011;3367;48.714;8.994;2023-04-10T00:52:01;13.97;;;8.97;;
6661;SDS011;3367;48.714;8.994;2023-04-10T00:54:28;16.57;;;9.77;;
6661;SDS011;3367;48.714;8.994;2023-04-10T00:56:56;16.17;;;9.50;;
6661;SDS011;3367;48.714;8.994;2023-04-10T00:59:23;16.30;;;9.90;;
6661;SDS011;3367;48.714;8.994;2023-04-10T01:01:50;16.00;;;9.97;;
6661;SDS011;3367;48.714;8.994;2023-04-10T01:04:17;16.27;;;10.10;;
6661;SDS011;3367;48.714;8.994;2023-04-10T01:06:49;17.20;;;11.20;;
6661;SDS011;3367;48.714;8.994;2023-04-10T01:09:25;16.37;;;9.80;;
6661;SDS011;3367;48.714;8.994;2023-04-10T01:12:03;13.30;;;9.20;;
6661;SDS011;3367;48.714;8.994;2023-04-10T01:14:40;16.20;;;10.50;;
6661;SDS011;3367;48.714;8.994;2023-04-10T01:17:17;16.03;;;9.50;;
6661;SDS011;3367;48.714;8.994;2023-04-10T01:20:01;15.87;;;9.50;;
6661;SDS011;3367;48.714;8.994;2023-04-10T01:22:34;13.87;;;9.30;;
6661;SDS011;3367;48.714;8.994;2023-04-10T01:25:13;15.43;;;9.30;;
6661;SDS011;3367;48.714;8.994;2023-04-10T01:27:54;17.23;;;11.70;;
6661;SDS011;3367;48.714;8.994;2023-04-10T01:30:33;16.83;;;10.13;;
6661;SDS011;3367;48.714;8.994;2023-04-10T01:33:02;15.97;;;10.97;;
6661;SDS011;3367;48.714;8.994;2023-04-10T01:35:31;17.13;;;10.13;;
6661;SDS011;3367;48.714;8.994;2023-04-10T01:38:00;18.70;;;10.80;;
6661;SDS011;3367;48.714;8.994;2023-04-10T01:40:29;13.77;;;9.60;;
6661;SDS011;3367;48.714;8.994;2023-04-10T01:42:57;14.77;;;10.37;;
6661;SDS011;3367;48.714;8.994;2023-04-10T01:45:27;14.93;;;9.87;;
6661;SDS011;3367;48.714;8.994;2023-04-10T01:47:55;14.57;;;9.47;;
6661;SDS011;3367;48.714;8.994;2023-04-10T01:50:22;16.03;;;9.20;;
6661;SDS011;3367;48.714;8.994;2023-04-10T01:52:52;15.00;;;9.83;;
6661;SDS011;3367;48.714;8.994;2023-04-10T01:55:19;14.83;;;9.40;;
6661;SDS011;3367;48.714;8.994;2023-04-10T01:57:47;16.60;;;9.80;;
6661;SDS011;3367;48.714;8.994;2023-04-10T02:00:14;14.00;;;9.97;;
6661;SDS011;3367;48.714;8.994;2023-04-10T02:02:41;15.37;;;9.57;;
6661;SDS011;3367;48.714;8.994;2023-04-10T02:05:10;13.30;;;9.30;;
6661;SDS011;3367;48.714;8.994;2023-04-10T02:07:39;12.97;;;8.87;;
6661;SDS011;3367;48.714;8.994;2023-04-10T02:10:12;13.20;;;9.40;;
6661;SDS011;3367;48.714;8.994;2023-04-10T02:12:44;14.83;;;9.07;;
6661;SDS011;3367;48.714;8.994;2023-04-10T02:15:15;16.47;;;9.60;;
6661;SDS011;3367;48.714;8.994;2023-04-10T02:17:44;14.07;;;9.57;;
6661;SDS011;3367;48.714;8.994;2023-04-10T02:20:14;12.70;;;8.67;;
6661;SDS011;3367;48.714;8.994;2023-04-10T02:22:42;15.50;;;9.27;;
6661;SDS011;3367;48.714;8.994;2023-04-10T02:25:10;16.00;;;9.67;;
6661;SDS011;3367;48.714;8.994;2023-04-10T02:27:37;14.90;;;9.77;;
6661;SDS011;3367;48.714;8.994;2023-04-10T02:30:05;16.27;;;9.87;;
6661;SDS011;3367;48.714;8.994;2023-04-10T02:32:33;20.03;;;10.57;;
6661;SDS011;3367;48.714;8.994;2023-04-10T02:35:00;15.70;;;9.67;;
6661;SDS011;3367;48.714;8.994;2023-04-10T02:37:28;14.10;;;9.10;;
6661;SDS011;3367;48.714;8.994;2023-04-10T02:39:56;15.27;;;9.40;;
6661;SDS011;3367;48.714;8.994;2023-04-10T02:42:23;17.23;;;9.53;;
6661;SDS011;3367;48.714;8.994;2023-04-10T02:44:50;12.80;;;8.17;;
6661;SDS011;3367;48.714;8.994;2023-04-10T02:47:17;12.17;;;8.37;;
6661;SDS011;3367;48.714;8.994;2023-04-10T02:49:43;16.03;;;9.77;;
6661;SDS011;3367;48.714;8.994;2023-04-10T02:52:10;13.87;;;8.80;;
6661;SDS011;3367;48.714;8.994;2023-04-10T02:54:38;15.70;;;9.90;;
6661;SDS011;3367;48.714;8.994;2023-04-10T02:57:05;13.87;;;9.10;;
6661;SDS011;3367;48.714;8.994;2023-04-10T02:59:32;14.50;;;9.47;;
6661;SDS011;3367;48.714;8.994;2023-04-10T03:01:58;16.77;;;10.17;;
6661;SDS011;3367;48.714;8.994;2023-04-10T03:04:25;16.13;;;9.80;;
6661;SDS011;3367;48.714;8.994;2023-04-10T03:06:53;16.00;;;9.17;;
6661;SDS011;3367;48.714;8.994;2023-04-10T03:09:19;14.07;;;9.77;;
6661;SDS011;3367;48.714;8.994;2023-04-10T03:11:47;14.73;;;9.30;;
6661;SDS011;3367;48.714;8.994;2023-04-10T03:14:14;20.13;;;11.30;;
6661;SDS011;3367;48.714;8.994;2023-04-10T03:16:42;13.80;;;9.73;;
6661;SDS011;3367;48.714;8.994;2023-04-10T03:19:08;18.07;;;8.97;;
6661;SDS011;3367;48.714;8.994;2023-04-10T03:21:36;14.80;;;9.63;;
6661;SDS011;3367;48.714;8.994;2023-04-10T03:24:03;22.20;;;9.70;;
6661;SDS011;3367;48.714;8.994;2023-04-10T03:26:31;13.77;;;8.63;;
6661;SDS011;3367;48.714;8.994;2023-04-10T03:28:59;13.37;;;8.93;;
6661;SDS011;3367;48.714;8.994;2023-04-10T03:31:26;20.40;;;10.40;;
6661;SDS011;3367;48.714;8.994;2023-04-10T03:33:53;16.77;;;9.70;;
6661;SDS011;3367;48.714;8.994;2023-04-10T03:36:19;15.03;;;9.10;;
6661;SDS011;3367;48.714;8.994;2023-04-10T03:38:46;15.77;;;8.90;;
6661;SDS011;3367;48.714;8.994;2023-04-10T03:41:13;13.90;;;9.20;;
6661;SDS011;3367;48.714;8.994;2023-04-10T03:43:40;18.40;;;10.20;;
6661;SDS011;3367;48.714;8.994;2023-04-10T03:46:08;17.07;;;9.87;;
6661;SDS011;3367;48.714;8.994;2023-04-10T03:48:35;15.47;;;9.30;;
6661;SDS011;3367;48.714;8.994;2023-04-10T03:51:01;15.00;;;9.10;;
6661;SDS011;3367;48.714;8.994;2023-04-10T03:53:28;13.73;;;9.37;;
6661;SDS011;3367;48.714;8.994;2023-04-10T03:55:59;15.17;;;9.10;;
6661;SDS011;3367;48.714;8.994;2023-04-10T03:58:27;14.80;;;9.40;;
6661;SDS011;3367;48.714;8.994;2023-04-10T04:00:53;15.83;;;10.43;;
6661;SDS011;3367;48.714;8.994;2023-04-10T04:03:21;13.57;;;8.47;;
6661;SDS011;3367;48.714;8.994;2023-04-10T04:05:48;15.03;;;9.20;;
6661;SDS011;3367;48.714;8.994;2023-04-10T04:08:16;15.03;;;9.27;;
6661;SDS011;3367;48.714;8.994;2023-04-10T04:10:42;14.30;;;8.10;;
6661;SDS011;3367;48.714;8.994;2023-04-10T04:13:09;17.77;;;9.10;;
6661;SDS011;3367;48.714;8.994;2023-04-10T04:15:36;13.97;;;9.00;;
6661;SDS011;3367;48.714;8.994;2023-04-10T04:18:03;15.93;;;10.13;;
6661;SDS011;3367;48.714;8.994;2023-04-10T04:20:31;13.03;;;9.30;;
6661;SDS011;3367;48.714;8.994;2023-04-10T04:22:58;16.30;;;9.07;;
6661;SDS011;3367;48.714;8.994;2023-04-10T04:25:25;13.53;;;9.13;;
6661;SDS011;3367;48.714;8.994;2023-04-10T04:27:52;15.23;;;10.03;;
6661;SDS011;3367;48.714;8.994;2023-04-10T04:30:18;13.30;;;8.80;;
6661;SDS011;3367;48.714;8.994;2023-04-10T04:32:45;11.53;;;7.70;;
6661;SDS011;3367;48.714;8.994;2023-04-10T04:35:12;14.63;;;8.90;;
6661;SDS011;3367;48.714;8.994;2023-04-10T04:37:40;15.90;;;9.20;;
6661;SDS011;3367;48.714;8.994;2023-04-10T04:40:07;15.77;;;9.70;;
6661;SDS011;3367;48.714;8.994;2023-04-10T04:42:34;14.70;;;8.70;;
6661;SDS011;3367;48.714;8.994;2023-04-10T04:45:01;13.23;;;8.77;;
6661;SDS011;3367;48.714;8.994;2023-04-10T04:47:28;15.13;;;10.60;;
6661;SDS011;3367;48.714;8.994;2023-04-10T04:49:54;13.13;;;9.00;;
6661;SDS011;3367;48.714;8.994;2023-04-10T04:52:21;20.27;;;10.30;;
6661;SDS011;3367;48.714;8.994;2023-04-10T04:54:50;15.13;;;9.10;;
6661;SDS011;3367;48.714;8.994;2023-04-10T04:57:17;14.40;;;8.70;;
6661;SDS011;3367;48.714;8.994;2023-04-10T04:59:44;14.40;;;8.80;;
6661;SDS011;3367;48.714;8.994;2023-04-10T05:02:11;15.17;;;9.33;;
6661;SDS011;3367;48.714;8.994;2023-04-10T05:04:37;13.60;;;9.10;;
6661;SDS011;3367;48.714;8.994;2023-04-10T05:07:04;14.50;;;9.13;;
6661;SDS011;3367;48.714;8.994;2023-04-10T05:09:31;17.07;;;10.37;;
6661;SDS011;3367;48.714;8.994;2023-04-10T05:11:59;15.97;;;10.00;;
6661;SDS011;3367;48.714;8.994;2023-04-10T05:14:26;18.43;;;9.90;;
6661;SDS011;3367;48.714;8.994;2023-04-10T05:16:53;15.30;;;10.00;;
6661;SDS011;3367;48.714;8.994;2023-04-10T05:19:19;17.03;;;9.80;;
6661;SDS011;3367;48.714;8.994;2023-04-10T05:21:46;15.97;;;10.23;;
6661;SDS011;3367;48.714;8.994;2023-04-10T05:24:13;13.97;;;9.30;;
6661;SDS011;3367;48.714;8.994;2023-04-10T05:26:40;15.83;;;9.13;;
6661;SDS011;3367;48.714;8.994;2023-04-10T05:29:08;19.73;;;10.40;;
6661;SDS011;3367;48.714;8.994;2023-04-10T05:31:35;14.70;;;10.33;;
6661;SDS011;3367;48.714;8.994;2023-04-10T05:34:02;17.30;;;10.10;;
6661;SDS011;3367;48.714;8.994;2023-04-10T05:36:29;14.30;;;9.47;;
6661;SDS011;3367;48.714;8.994;2023-04-10T05:38:55;14.70;;;9.57;;
6661;SDS011;3367;48.714;8.994;2023-04-10T05:41:22;15.53;;;9.47;;
6661;SDS011;3367;48.714;8.994;2023-04-10T05:43:49;12.87;;;8.50;;
6661;SDS011;3367;48.714;8.994;2023-04-10T05:46:17;15.30;;;9.13;;
6661;SDS011;3367;48.714;8.994;2023-04-10T05:48:44;14.07;;;9.60;;
6661;SDS011;3367;48.714;8.994;2023-04-10T05:51:10;14.33;;;8.17;;
6661;SDS011;3367;48.714;8.994;2023-04-10T05:53:37;12.63;;;7.87;;
6661;SDS011;3367;48.714;8.994;2023-04-10T05:56:04;11.53;;;8.50;;
6661;SDS011;3367;48.714;8.994;2023-04-10T05:58:32;10.67;;;8.03;;
6661;SDS011;3367;48.714;8.994;2023-04-10T06:00:58;12.10;;;7.97;;
6661;SDS011;3367;48.714;8.994;2023-04-10T06:03:26;11.70;;;7.87;;
6661;SDS011;3367;48.714;8.994;2023-04-10T06:05:54;12.60;;;8.47;;
6661;SDS011;3367;48.714;8.994;2023-04-10T06:08:21;12.87;;;8.77;;
6661;SDS011;3367;48.714;8.994;2023-04-10T06:10:48;13.17;;;9.70;;
6661;SDS011;3367;48.714;8.994;2023-04-10T06:13:15;12.73;;;8.93;;
6661;SDS011;3367;48.714;8.994;2023-04-10T06:15:42;16.00;;;9.00;;
6661;SDS011;3367;48.714;8.994;2023-04-10T06:18:08;10.97;;;8.47;;
6661;SDS011;3367;48.714;8.994;2023-04-10T06:20:36;11.57;;;8.70;;
6661;SDS011;3367;48.714;8.994;2023-04-10T06:23:03;11.40;;;8.53;;
6661;SDS011;3367;48.714;8.994;2023-04-10T06:25:30;9.67;;;7.40;;
6661;SDS011;3367;48.714;8.994;2023-04-10T06:27:57;11.07;;;8.10;;
6661;SDS011;3367;48.714;8.994;2023-04-10T06:30:24;9.60;;;7.80;;
6661;SDS011;3367;48.714;8.994;2023-04-10T06:32:51;10.70;;;7.67;;
6661;SDS011;3367;48.714;8.994;2023-04-10T06:35:18;10.70;;;8.40;;
6661;SDS011;3367;48.714;8.994;2023-04-10T06:37:46;12.67;;;9.50;;
6661;SDS011;3367;48.714;8.994;2023-04-10T06:40:13;12.17;;;8.50;;
6661;SDS011;3367;48.714;8.994;2023-04-10T06:42:40;10.80;;;7.57;;
6661;SDS011;3367;48.714;8.994;2023-04-10T06:45:07;11.50;;;8.03;;
6661;SDS011;3367;48.714;8.994;2023-04-10T06:47:34;10.00;;;8.00;;
6661;SDS011;3367;48.714;8.994;2023-04-10T06:50:01;11.10;;;8.80;;
6661;SDS011;3367;48.714;8.994;2023-04-10T06:52:28;9.87;;;8.40;;
6661;SDS011;3367;48.714;8.994;2023-04-10T06:54:56;9.73;;;8.20;;
6661;SDS011;3367;48.714;8.994;2023-04-10T06:57:23;10.97;;;7.77;;
6661;SDS011;3367;48.714;8.994;2023-04-10T06:59:50;7.80;;;6.97;;
6661;SDS011;3367;48.714;8.994;2023-04-10T07:02:16;9.57;;;8.23;;
6661;SDS011;3367;48.714;8.994;2023-04-10T07:04:43;10.90;;;8.43;;
6661;SDS011;3367;48.714;8.994;2023-04-10T07:07:10;12.13;;;8.90;;
6661;SDS011;3367;48.714;8.994;2023-04-10T07:09:37;8.00;;;7.20;;
6661;SDS011;3367;48.714;8.994;2023-04-10T07:12:06;9.60;;;8.20;;
6661;SDS011;3367;48.714;8.994;2023-04-10T07:14:33;7.90;;;7.10;;
6661;SDS011;3367;48.714;8.994;2023-04-10T07:17:00;8.77;;;7.33;;
6661;SDS011;3367;48.714;8.994;2023-04-10T07:19:27;8.27;;;7.20;;
6661;SDS011;3367;48.714;8.994;2023-04-10T07:21:54;9.80;;;7.27;;
6661;SDS011;3367;48.714;8.994;2023-04-10T07:24:20;8.50;;;7.57;;
6661;SDS011;3367;48.714;8.994;2023-04-10T07:26:47;9.37;;;7.40;;
6661;SDS011;3367;48.714;8.994;2023-04-10T07:29:15;9.20;;;7.60;;
6661;SDS011;3367;48.714;8.994;2023-04-10T07:31:44;8.93;;;7.80;;
6661;SDS011;3367;48.714;8.994;2023-04-10T07:34:10;7.60;;;6.80;;
6661;SDS011;3367;48.714;8.994;2023-04-10T07:36:37;6.97;;;6.03;;
6661;SDS011;3367;48.714;8.994;2023-04-10T07:39:04;6.70;;;6.10;;
6661;SDS011;3367;48.714;8.994;2023-04-10T07:41:31;8.83;;;7.87;;
6661;SDS011;3367;48.714;8.994;2023-04-10T07:43:57;6.00;;;5.50;;
6661;SDS011;3367;48.714;8.994;2023-04-10T07:46:26;8.13;;;5.90;;
6661;SDS011;3367;48.714;8.994;2023-04-10T07:48:53;4.90;;;4.50;;
6661;SDS011;3367;48.714;8.994;2023-04-10T07:51:20;4.57;;;4.17;;
6661;SDS011;3367;48.714;8.994;2023-04-10T07:53:46;4.70;;;4.30;;
6661;SDS011;3367;48.714;8.994;2023-04-10T07:56:14;4.63;;;4.23;;
6661;SDS011;3367;48.714;8.994;2023-04-10T07:58:42;4.60;;;4.20;;
6661;SDS011;3367;48.714;8.994;2023-04-10T08:01:09;3.60;;;3.40;;
6661;SDS011;3367;48.714;8.994;2023-04-10T08:03:40;4.37;;;4.00;;
6661;SDS011;3367;48.714;8.994;2023-04-10T08:06:08;3.83;;;3.43;;
6661;SDS011;3367;48.714;8.994;2023-04-10T08:08:35;4.60;;;4.20;;
6661;SDS011;3367;48.714;8.994;2023-04-10T08:11:03;4.17;;;3.77;;
6661;SDS011;3367;48.714;8.994;2023-04-10T08:13:31;4.00;;;3.60;;
6661;SDS011;3367;48.714;8.994;2023-04-10T08:15:58;3.90;;;3.60;;
6661;SDS011;3367;48.714;8.994;2023-04-10T08:18:25;3.93;;;3.57;;
6661;SDS011;3367;48.714;8.994;2023-04-10T08:20:53;3.00;;;2.80;;
6661;SDS011;3367;48.714;8.994;2023-04-10T08:23:20;3.50;;;3.20;;
6661;SDS011;3367;48.714;8.994;2023-04-10T08:25:47;3.10;;;2.90;;
6661;SDS011;3367;48.714;8.994;2023-04-10T08:28:13;4.07;;;3.70;;
6661;SDS011;3367;48.714;8.994;2023-04-10T08:30:40;3.33;;;2.93;;
6661;SDS011;3367;48.714;8.994;2023-04-10T08:33:07;3.43;;;3.13;;
6661;SDS011;3367;48.714;8.994;2023-04-10T08:35:33;3.60;;;3.30;;
6661;SDS011;3367;48.714;8.994;2023-04-10T08:38:01;3.63;;;3.33;;
6661;SDS011;3367;48.714;8.994;2023-04-10T08:40:28;3.50;;;3.13;;
6661;SDS011;3367;48.714;8.994;2023-04-10T08:42:55;3.30;;;2.93;;
6661;SDS011;3367;48.714;8.994;2023-04-10T08:45:21;3.70;;;3.40;;
6661;SDS011;3367;48.714;8.994;2023-04-10T08:47:49;3.37;;;3.07;;
6661;SDS011;3367;48.714;8.994;2023-04-10T08:50:17;3.47;;;3.27;;
6661;SDS011;3367;48.714;8.994;2023-04-10T08:52:45;3.40;;;3.10;;
6661;SDS011;3367;48.714;8.994;2023-04-10T08:55:18;3.07;;;2.87;;
6661;SDS011;3367;48.714;8.994;2023-04-10T08:57:45;3.07;;;2.87;;
6661;SDS011;3367;48.714;8.994;2023-04-10T09:00:13;2.77;;;2.67;;
6661;SDS011;3367;48.714;8.994;2023-04-10T09:02:40;4.17;;;3.07;;
6661;SDS011;3367;48.714;8.994;2023-04-10T09:05:09;3.00;;;2.70;;
6661;SDS011;3367;48.714;8.994;2023-04-10T09:07:37;3.10;;;2.90;;
6661;SDS011;3367;48.714;8.994;2023-04-10T09:10:04;3.10;;;2.87;;
6661;SDS011;3367;48.714;8.994;2023-04-10T09:12:43;2.93;;;2.70;;
6661;SDS011;3367;48.714;8.994;2023-04-10T09:15:11;3.33;;;2.70;;
6661;SDS011;3367;48.714;8.994;2023-04-10T09:17:42;3.07;;;2.87;;
6661;SDS011;3367;48.714;8.994;2023-04-10T09:20:20;2.50;;;2.30;;
6661;SDS011;3367;48.714;8.994;2023-04-10T09:22:48;2.50;;;2.30;;
6661;SDS011;3367;48.714;8.994;2023-04-10T09:25:27;2.30;;;2.17;;
6661;SDS011;3367;48.714;8.994;2023-04-10T09:28:01;2.83;;;2.63;;
6661;SDS011;3367;48.714;8.994;2023-04-10T09:30:32;2.10;;;2.00;;
6661;SDS011;3367;48.714;8.994;2023-04-10T09:33:12;2.60;;;2.40;;
6661;SDS011;3367;48.714;8.994;2023-04-10T09:35:46;2.50;;;2.30;;
6661;SDS011;3367;48.714;8.994;2023-04-10T09:38:14;3.37;;;3.17;;
6661;SDS011;3367;48.714;8.994;2023-04-10T09:40:42;2.37;;;2.20;;
6661;SDS011;3367;48.714;8.994;2023-04-10T09:43:20;2.17;;;2.07;;
6661;SDS011;3367;48.714;8.994;2023-04-10T09:45:48;2.33;;;2.17;;
6661;SDS011;3367;48.714;8.994;2023-04-10T09:48:16;3.13;;;2.60;;
6661;SDS011;3367;48.714;8.994;2023-04-10T09:50:43;1.90;;;1.80;;
6661;SDS011;3367;48.714;8.994;2023-04-10T09:53:11;2.37;;;2.17;;
6661;SDS011;3367;48.714;8.994;2023-04-10T09:55:39;6.90;;;2.37;;
6661;SDS011;3367;48.714;8.994;2023-04-10T09:58:07;2.70;;;2.50;;
6661;SDS011;3367;48.714;8.994;2023-04-10T10:00:37;2.83;;;2.60;;
6661;SDS011;3367;48.714;8.994;2023-04-10T10:03:09;2.10;;;1.90;;
6661;SDS011;3367;48.714;8.994;2023-04-10T10:05:38;2.70;;;2.50;;
6661;SDS011;3367;48.714;8.994;2023-04-10T10:08:08;2.53;;;2.33;;
6661;SDS011;3367;48.714;8.994;2023-04-10T10:10:35;2.57;;;2.40;;
6661;SDS011;3367;48.714;8.994;2023-04-10T10:13:05;2.43;;;2.33;;
6661;SDS011;3367;48.714;8.994;2023-04-10T10:15:37;1.77;;;1.67;;
6661;SDS011;3367;48.714;8.994;2023-04-10T10:18:11;2.13;;;2.03;;
6661;SDS011;3367;48.714;8.994;2023-04-10T10:20:44;2.53;;;2.20;;
6661;SDS011;3367;48.714;8.994;2023-04-10T10:23:12;2.20;;;2.10;;
6661;SDS011;3367;48.714;8.994;2023-04-10T10:25:41;2.20;;;2.00;;
6661;SDS011;3367;48.714;8.994;2023-04-10T10:28:10;1.83;;;1.67;;
6661;SDS011;3367;48.714;8.994;2023-04-10T10:30:39;2.87;;;2.67;;
6661;SDS011;3367;48.714;8.994;2023-04-10T10:33:07;2.03;;;1.90;;
6661;SDS011;3367;48.714;8.994;2023-04-10T10:35:35;2.40;;;2.20;;
6661;SDS011;3367;48.714;8.994;2023-04-10T10:38:03;1.83;;;1.73;;
6661;SDS011;3367;48.714;8.994;2023-04-10T10:40:30;1.70;;;1.60;;
6661;SDS011;3367;48.714;8.994;2023-04-10T10:43:05;3.73;;;1.70;;
6661;SDS011;3367;48.714;8.994;2023-04-10T10:45:36;1.70;;;1.60;;
6661;SDS011;3367;48.714;8.994;2023-04-10T10:48:15;1.70;;;1.60;;
6661;SDS011;3367;48.714;8.994;2023-04-10T10:50:48;2.23;;;1.90;;
6661;SDS011;3367;48.714;8.994;2023-04-10T10:53:29;1.40;;;1.30;;
6661;SDS011;3367;48.714;8.994;2023-04-10T10:55:57;1.50;;;1.40;;
6661;SDS011;3367;48.714;8.994;2023-04-10T11:01:13;2.73;;;1.50;;
6661;SDS011;3367;48.714;8.994;2023-04-10T11:03:40;1.20;;;1.00;;
6661;SDS011;3367;48.714;8.994;2023-04-10T11:06:09;2.40;;;1.30;;
6661;SDS011;3367;48.714;8.994;2023-04-10T11:08:38;1.77;;;1.67;;
6661;SDS011;3367;48.714;8.994;2023-04-10T11:11:16;1.80;;;1.70;;
6661;SDS011;3367;48.714;8.994;2023-04-10T11:16:44;1.20;;;1.10;;
6661;SDS011;3367;48.714;8.994;2023-04-10T11:19:11;1.40;;;1.30;;
6661;SDS011;3367;48.714;8.994;2023-04-10T11:24:54;1.37;;;1.27;;
6661;SDS011;3367;48.714;8.994;2023-04-10T11:27:39;1.60;;;1.50;;
6661;SDS011;3367;48.714;8.994;2023-04-10T11:30:26;1.17;;;1.10;;
6661;SDS011;3367;48.714;8.994;2023-04-10T11:32:55;1.60;;;1.50;;
6661;SDS011;3367;48.714;8.994;2023-04-10T11:35:24;1.60;;;1.50;;
6661;SDS011;3367;48.714;8.994;2023-04-10T11:37:51;1.40;;;1.30;;
6661;SDS011;3367;48.714;8.994;2023-04-10T11:40:51;1.20;;;1.10;;
6661;SDS011;3367;48.714;8.994;2023-04-10T11:43:19;1.40;;;1.30;;
6661;SDS011;3367;48.714;8.994;2023-04-10T11:45:46;1.50;;;1.40;;
6661;SDS011;3367;48.714;8.994;2023-04-10T11:48:14;1.33;;;1.23;;
6661;SDS011;3367;48.714;8.994;2023-04-10T11:50:42;1.43;;;1.33;;
6661;SDS011;3367;48.714;8.994;2023-04-10T11:53:16;1.40;;;1.30;;
6661;SDS011;3367;48.714;8.994;2023-04-10T11:55:43;1.43;;;1.20;;
6661;SDS011;3367;48.714;8.994;2023-04-10T11:58:20;1.50;;;1.40;;
6661;SDS011;3367;48.714;8.994;2023-04-10T12:00:54;1.20;;;1.10;;
6661;SDS011;3367;48.714;8.994;2023-04-10T12:03:31;1.00;;;1.00;;
6661;SDS011;3367;48.714;8.994;2023-04-10T12:05:58;1.13;;;1.03;;
6661;SDS011;3367;48.714;8.994;2023-04-10T12:08:34;3.10;;;0.70;;
6661;SDS011;3367;48.714;8.994;2023-04-10T12:11:02;1.00;;;0.90;;
6661;SDS011;3367;48.714;8.994;2023-04-10T12:13:30;1.47;;;0.77;;
6661;SDS011;3367;48.714;8.994;2023-04-10T12:15:58;0.87;;;0.87;;
6661;SDS011;3367;48.714;8.994;2023-04-10T12:18:26;1.00;;;1.00;;
6661;SDS011;3367;48.714;8.994;2023-04-10T12:20:55;1.03;;;1.00;;
6661;SDS011;3367;48.714;8.994;2023-04-10T12:23:23;0.80;;;0.80;;
6661;SDS011;3367;48.714;8.994;2023-04-10T12:25:51;1.20;;;1.10;;
6661;SDS011;3367;48.714;8.994;2023-04-10T12:28:19;0.90;;;0.90;;
6661;SDS011;3367;48.714;8.994;2023-04-10T12:30:47;1.00;;;0.90;;
6661;SDS011;3367;48.714;8.994;2023-04-10T12:33:19;1.00;;;0.90;;
6661;SDS011;3367;48.714;8.994;2023-04-10T12:35:46;1.57;;;1.10;;
6661;SDS011;3367;48.714;8.994;2023-04-10T12:38:15;1.13;;;1.03;;
6661;SDS011;3367;48.714;8.994;2023-04-10T12:41:00;1.20;;;0.97;;
6661;SDS011;3367;48.714;8.994;2023-04-10T12:43:34;1.63;;;1.23;;
6661;SDS011;3367;48.714;8.994;2023-04-10T12:46:01;0.83;;;0.83;;
6661;SDS011;3367;48.714;8.994;2023-04-10T12:48:29;0.93;;;0.93;;
6661;SDS011;3367;48.714;8.994;2023-04-10T12:50:56;1.00;;;0.93;;
6661;SDS011;3367;48.714;8.994;2023-04-10T12:53:24;0.70;;;0.60;;
6661;SDS011;3367;48.714;8.994;2023-04-10T12:55:55;1.57;;;0.80;;
6661;SDS011;3367;48.714;8.994;2023-04-10T12:58:26;1.40;;;0.63;;
6661;SDS011;3367;48.714;8.994;2023-04-10T13:00:55;0.83;;;0.83;;
6661;SDS011;3367;48.714;8.994;2023-04-10T13:03:23;3.13;;;0.70;;
6661;SDS011;3367;48.714;8.994;2023-04-10T13:05:50;1.10;;;1.00;;
6661;SDS011;3367;48.714;8.994;2023-04-10T13:08:17;0.90;;;0.80;;
6661;SDS011;3367;48.714;8.994;2023-04-10T13:10:45;0.87;;;0.83;;
6661;SDS011;3367;48.714;8.994;2023-04-10T13:13:13;6.80;;;0.77;;
6661;SDS011;3367;48.714;8.994;2023-04-10T13:15:40;0.73;;;0.73;;
6661;SDS011;3367;48.714;8.994;2023-04-10T13:18:07;0.73;;;0.73;;
6661;SDS011;3367;48.714;8.994;2023-04-10T13:20:35;0.80;;;0.80;;
6661;SDS011;3367;48.714;8.994;2023-04-10T13:23:02;0.90;;;0.90;;
6661;SDS011;3367;48.714;8.994;2023-04-10T13:25:30;1.13;;;1.03;;
6661;SDS011;3367;48.714;8.994;2023-04-10T13:27:59;1.43;;;0.93;;
6661;SDS011;3367;48.714;8.994;2023-04-10T13:30:26;1.03;;;0.93;;
6661;SDS011;3367;48.714;8.994;2023-04-10T13:32:54;0.80;;;0.80;;
6661;SDS011;3367;48.714;8.994;2023-04-10T13:35:20;1.07;;;0.70;;
6661;SDS011;3367;48.714;8.994;2023-04-10T13:37:47;1.00;;;0.90;;
6661;SDS011;3367;48.714;8.994;2023-04-10T13:40:17;0.60;;;0.60;;
6661;SDS011;3367;48.714;8.994;2023-04-10T13:42:45;2.10;;;1.00;;
6661;SDS011;3367;48.714;8.994;2023-04-10T13:45:13;1.10;;;1.00;;
6661;SDS011;3367;48.714;8.994;2023-04-10T13:47:40;1.30;;;0.77;;
6661;SDS011;3367;48.714;8.994;2023-04-10T13:50:07;0.70;;;0.70;;
6661;SDS011;3367;48.714;8.994;2023-04-10T13:52:34;1.93;;;0.83;;
6661;SDS011;3367;48.714;8.994;2023-04-10T13:55:01;0.70;;;0.60;;
6661;SDS011;3367;48.714;8.994;2023-04-10T13:57:28;1.67;;;1.57;;
6661;SDS011;3367;48.714;8.994;2023-04-10T13:59:55;0.83;;;0.83;;
6661;SDS011;3367;48.714;8.994;2023-04-10T14:02:23;0.80;;;0.73;;
6661;SDS011;3367;48.714;8.994;2023-04-10T14:04:50;1.10;;;0.57;;
6661;SDS011;3367;48.714;8.994;2023-04-10T14:07:17;0.80;;;0.80;;
6661;SDS011;3367;48.714;8.994;2023-04-10T14:09:44;0.83;;;0.83;;
6661;SDS011;3367;48.714;8.994;2023-04-10T14:12:11;0.70;;;0.50;;
6661;SDS011;3367;48.714;8.994;2023-04-10T14:14:40;0.70;;;0.63;;
6661;SDS011;3367;48.714;8.994;2023-04-10T14:17:07;0.80;;;0.80;;
6661;SDS011;3367;48.714;8.994;2023-04-10T14:19:35;1.07;;;0.80;;
6661;SDS011;3367;48.714;8.994;2023-04-10T14:22:02;1.00;;;0.90;;
6661;SDS011;3367;48.714;8.994;2023-04-10T14:24:29;0.60;;;0.50;;
6661;SDS011;3367;48.714;8.994;2023-04-10T14:26:56;0.83;;;0.80;;
6661;SDS011;3367;48.714;8.994;2023-04-10T14:29:25;0.80;;;0.80;;
6661;SDS011;3367;48.714;8.994;2023-04-10T14:31:52;1.47;;;0.87;;
6661;SDS011;3367;48.714;8.994;2023-04-10T14:34:18;0.80;;;0.70;;
6661;SDS011;3367;48.714;8.994;2023-04-10T14:36:46;0.90;;;0.70;;
6661;SDS011;3367;48.714;8.994;2023-04-10T14:39:13;0.80;;;0.80;;
6661;SDS011;3367;48.714;8.994;2023-04-10T14:41:40;0.70;;;0.70;;
6661;SDS011;3367;48.714;8.994;2023-04-10T14:44:07;0.80;;;0.80;;
6661;SDS011;3367;48.714;8.994;2023-04-10T14:46:33;0.80;;;0.80;;
6661;SDS011;3367;48.714;8.994;2023-04-10T14:49:01;0.90;;;0.80;;
6661;SDS011;3367;48.714;8.994;2023-04-10T14:51:28;0.80;;;0.80;;
6661;SDS011;3367;48.714;8.994;2023-04-10T14:53:57;0.83;;;0.70;;
6661;SDS011;3367;48.714;8.994;2023-04-10T14:56:23;1.10;;;1.00;;
6661;SDS011;3367;48.714;8.994;2023-04-10T14:58:50;1.30;;;1.20;;
6661;SDS011;3367;48.714;8.994;2023-04-10T15:01:17;0.70;;;0.70;;
6661;SDS011;3367;48.714;8.994;2023-04-10T15:03:45;1.20;;;1.10;;
6661;SDS011;3367;48.714;8.994;2023-04-10T15:06:12;0.80;;;0.77;;
6661;SDS011;3367;48.714;8.994;2023-04-10T15:08:40;1.00;;;0.90;;
6661;SDS011;3367;48.714;8.994;2023-04-10T15:11:08;1.10;;;1.00;;
6661;SDS011;3367;48.714;8.994;2023-04-10T15:13:34;0.90;;;0.90;;
6661;SDS011;3367;48.714;8.994;2023-04-10T15:16:02;1.00;;;0.90;;
6661;SDS011;3367;48.714;8.994;2023-04-10T15:18:30;1.00;;;0.87;;
6661;SDS011;3367;48.714;8.994;2023-04-10T15:20:56;0.87;;;0.83;;
6661;SDS011;3367;48.714;8.994;2023-04-10T15:23:23;1.07;;;0.97;;